Time;durP1;ratioP1;P1;durP2;ratioP2;P2;SDS_P1;SDS_P2;PMS_P1;PMS_P2;Temp;Humidity;BMP_temperature;BMP_pressure;BME280_temperature;BME280_humidity;BME280_pressure;Samples;Min_cycle;Max_cycle;Signal;HPM_P1;HPM_P2
2022/10/24 00:00:58;;;;;;;35.60;19.00;;;;;;;11.25;100.00;99073.11;1762695;79;21014;-44
2022/10/24 00:03:25;;;;;;;31.00;18.70;;;;;;;11.25;100.00;99061.27;1754322;80;21424;-44
2022/10/24 00:05:53;;;;;;;32.57;20.10;;;;;;;11.25;100.00;99061.27;1754351;80;21037;-43
2022/10/24 00:08:20;;;;;;;30.75;19.77;;;;;;;11.24;100.00;99057.41;1757495;80;21593;-44
2022/10/24 00:10:48;;;;;;;32.37;19.07;;;;;;;11.22;100.00;99055.34;1756332;80;21006;-45
2022/10/24 00:13:16;;;;;;;30.50;18.32;;;;;;;11.21;100.00;99048.40;1754144;80;21041;-46
2022/10/24 00:15:46;;;;;;;31.20;18.82;;;;;;;11.21;100.00;99035.24;1761917;79;21007;-45
2022/10/24 00:18:13;;;;;;;24.80;17.98;;;;;;;11.20;100.00;99032.22;1750297;80;21563;-45
2022/10/24 00:20:40;;;;;;;29.98;19.50;;;;;;;11.19;100.00;99040.59;1757589;80;20999;-46
2022/10/24 00:23:07;;;;;;;;;;;;;;;11.19;100.00;99051.13;1755091;81;21619;-46
2022/10/24 00:25:35;;;;;;;33.05;19.12;;;;;;;11.17;100.00;99068.80;1757034;81;20417;-43
2022/10/24 00:28:02;;;;;;;33.18;18.90;;;;;;;11.16;100.00;99072.84;1752702;80;21014;-47
2022/10/24 00:30:29;;;;;;;;;;;;;;;11.16;100.00;99067.57;1756626;81;21544;-46
2022/10/24 00:32:55;;;;;;;32.75;19.82;;;;;;;11.11;100.00;99068.70;1751245;80;20409;-46
2022/10/24 00:35:22;;;;;;;31.87;19.30;;;;;;;11.14;100.00;99061.08;1753796;80;21097;-45
2022/10/24 00:37:49;;;;;;;29.10;18.77;;;;;;;11.14;100.00;99059.28;1755527;80;20983;-44
2022/10/24 00:40:18;;;;;;;31.97;20.23;;;;;;;11.16;100.00;99065.78;1754441;80;21057;-46
2022/10/24 00:42:47;;;;;;;28.60;18.27;;;;;;;11.17;100.00;99061.34;1750905;80;21073;-44
2022/10/24 00:45:45;;;;;;;33.20;19.48;;;;;;;11.16;100.00;99048.67;1748382;80;21437;-44
2022/10/24 00:48:34;;;;;;;32.80;19.92;;;;;;;11.17;100.00;99044.24;1749886;80;20986;-45
2022/10/24 00:51:27;;;;;;;32.38;20.05;;;;;;;11.17;100.00;99043.80;1689977;83;21030;-46
2022/10/24 00:53:58;;;;;;;30.05;19.20;;;;;;;11.16;100.00;99044.72;1754406;81;20992;-48
2022/10/24 00:56:30;;;;;;;32.35;19.12;;;;;;;11.14;100.00;99047.92;1750584;80;21499;-47
2022/10/24 00:59:01;;;;;;;30.72;19.95;;;;;;;11.16;100.00;99043.88;1756141;80;21007;-45
2022/10/24 01:01:28;;;;;;;36.95;19.98;;;;;;;11.17;100.00;99038.98;1748496;80;21073;-46
2022/10/24 01:03:54;;;;;;;34.33;19.92;;;;;;;11.17;100.00;99031.08;1750644;81;21002;-45
2022/10/24 01:06:55;;;;;;;32.63;20.23;;;;;;;11.18;100.00;99031.47;1752214;81;20999;-45
2022/10/24 01:09:46;;;;;;;31.90;20.57;;;;;;;11.17;100.00;99021.88;1754916;80;20978;-45
2022/10/24 01:12:50;;;;;;;35.70;21.02;;;;;;;11.20;100.00;99021.69;1750128;80;21081;-44
2022/10/24 01:15:37;;;;;;;31.52;21.25;;;;;;;11.20;100.00;99028.27;1755936;80;20986;-45
2022/10/24 01:18:18;;;;;;;30.92;20.80;;;;;;;11.20;100.00;99025.16;1709340;82;21003;-45
2022/10/24 01:21:25;;;;;;;34.18;21.85;;;;;;;11.20;100.00;99021.69;1759853;80;21018;-47
2022/10/24 01:24:09;;;;;;;33.08;20.92;;;;;;;11.23;100.00;99021.51;1747661;80;21046;-46
2022/10/24 01:27:15;;;;;;;40.58;21.33;;;;;;;11.24;100.00;99027.13;1769385;79;20997;-46
2022/10/24 01:29:53;;;;;;;43.08;21.73;;;;;;;11.25;100.00;99023.09;1759386;80;21007;-45
2022/10/24 01:32:54;;;;;;;36.40;21.82;;;;;;;11.26;100.00;99024.80;1754995;80;21011;-46
2022/10/24 01:35:41;;;;;;;37.42;21.10;;;;;;;11.27;100.00;99021.69;1756214;80;21002;-46
2022/10/24 01:38:31;;;;;;;34.03;20.20;;;;;;;11.26;100.00;99017.34;1759036;80;21049;-45
2022/10/24 01:41:12;;;;;;;34.80;21.00;;;;;;;11.27;100.00;99012.47;1761551;80;21042;-45
2022/10/24 01:43:52;;;;;;;37.05;20.72;;;;;;;11.28;100.00;99011.55;1753992;80;21018;-45
2022/10/24 01:46:26;;;;;;;42.85;21.57;;;;;;;11.24;100.00;98999.05;1725111;80;21081;-45
2022/10/24 01:49:13;;;;;;;33.30;20.92;;;;;;;11.27;100.00;98995.36;1751108;80;21527;-45
2022/10/24 01:51:42;;;;;;;35.00;20.75;;;;;;;11.28;100.00;98997.91;1765150;80;21019;-44
2022/10/24 01:54:10;;;;;;;33.28;21.07;;;;;;;11.28;100.00;98985.22;1755300;80;21045;-44
2022/10/24 01:56:37;;;;;;;33.18;21.57;;;;;;;11.28;100.00;98984.74;1750396;80;21007;-45
2022/10/24 01:59:08;;;;;;;34.80;20.77;;;;;;;11.30;100.00;98980.22;1748489;80;21051;-45
2022/10/24 02:01:37;;;;;;;31.87;19.67;;;;;;;11.29;100.00;98975.05;1751982;81;20986;-44
2022/10/24 02:04:08;;;;;;;32.03;20.68;;;;;;;11.31;100.00;98968.77;1750924;80;21536;-46
2022/10/24 02:06:39;;;;;;;31.57;19.75;;;;;;;11.33;100.00;98966.88;1727861;81;21022;-45
2022/10/24 02:09:10;;;;;;;36.80;20.60;;;;;;;11.35;100.00;98969.41;1752546;80;21010;-46
2022/10/24 02:11:39;;;;;;;34.92;20.50;;;;;;;11.36;100.00;98968.94;1711650;82;20995;-47
2022/10/24 02:14:28;;;;;;;30.15;19.82;;;;;;;11.32;100.00;98967.80;1694088;82;21030;-48
2022/10/24 02:16:55;;;;;;;32.23;19.30;;;;;;;11.31;100.00;98967.89;1696717;82;21043;-45
2022/10/24 02:19:22;;;;;;;34.33;20.08;;;;;;;11.33;100.00;98959.42;1700991;83;21002;-46
2022/10/24 02:22:31;;;;;;;30.60;19.57;;;;;;;11.33;100.00;98950.21;1699284;83;21074;-44
2022/10/24 02:25:12;;;;;;;33.02;19.50;;;;;;;11.32;100.00;98944.59;1709371;83;21556;-48
2022/10/24 02:27:44;;;;;;;34.30;20.17;;;;;;;11.33;100.00;98939.23;1710155;83;21075;-46
2022/10/24 02:30:21;;;;;;;30.02;19.37;;;;;;;11.32;100.00;98934.89;1705517;82;21658;-45
2022/10/24 02:32:53;;;;;;;26.45;18.62;;;;;;;11.34;100.00;98934.80;1702383;83;21489;-45
2022/10/24 02:35:29;;;;;;;29.67;18.82;;;;;;;11.36;100.00;98931.59;1693091;83;21051;-46
2022/10/24 02:38:02;;;;;;;28.45;19.67;;;;;;;11.36;100.00;98932.91;1699922;83;21521;-45
2022/10/24 02:40:49;;;;;;;30.25;19.52;;;;;;;11.36;100.00;98936.86;1703087;79;20971;31
2022/10/24 02:43:18;;;;;;;;;;;;;;;11.37;100.00;98948.23;1828950;77;21102;-44
2022/10/24 02:45:46;;;;;;;33.85;20.08;;;;;;;11.33;100.00;98937.05;1831176;77;20400;-45
2022/10/24 02:48:17;;;;;;;32.83;20.20;;;;;;;11.35;100.00;98939.14;1831552;77;21142;-45
2022/10/24 02:50:44;;;;;;;32.15;20.45;;;;;;;11.36;100.00;98934.71;1810536;77;21480;-44
2022/10/24 02:53:14;;;;;;;31.60;21.68;;;;;;;11.34;100.00;98931.69;1813302;77;21038;-48
2022/10/24 02:55:41;;;;;;;35.55;23.75;;;;;;;11.37;100.00;98925.85;1826818;77;21056;-45
2022/10/24 02:58:08;;;;;;;40.20;23.50;;;;;;;11.36;100.00;98928.13;1826989;77;21513;-46
2022/10/24 03:00:35;;;;;;;35.47;21.50;;;;;;;11.36;100.00;98921.06;1827705;77;21003;-46
2022/10/24 03:03:02;;;;;;;35.65;21.97;;;;;;;11.35;100.00;98918.08;1827121;77;21177;-46
2022/10/24 03:05:28;;;;;;;32.28;20.70;;;;;;;11.31;100.00;98921.83;1827014;76;21538;-45
2022/10/24 03:07:55;;;;;;;35.13;21.03;;;;;;;11.31;99.98;98922.70;1835075;77;20995;-45
2022/10/24 03:10:22;;;;;;;33.30;20.57;;;;;;;11.29;100.00;98911.39;1829381;77;21003;-46
2022/10/24 03:12:49;;;;;;;31.57;20.50;;;;;;;11.28;99.95;98908.89;1830076;77;20987;-45
2022/10/24 03:15:16;;;;;;;31.02;20.45;;;;;;;11.29;99.89;98914.50;1835849;77;21053;-44
2022/10/24 03:17:43;;;;;;;30.32;20.72;;;;;;;11.27;99.96;98905.87;1826808;77;21037;-44
2022/10/24 03:20:10;;;;;;;31.93;20.40;;;;;;;11.27;99.97;98909.81;1829165;77;20998;-44
2022/10/24 03:22:37;;;;;;;29.67;19.32;;;;;;;11.26;99.96;98903.72;1829821;77;21025;-45
2022/10/24 03:25:05;;;;;;;30.05;18.42;;;;;;;11.27;99.97;98901.92;1823823;77;21076;-44
2022/10/24 03:27:33;;;;;;;34.38;19.48;;;;;;;11.26;100.00;98894.50;1823734;77;21060;-47
2022/10/24 03:30:00;;;;;;;30.95;19.42;;;;;;;11.29;100.00;98886.87;1828330;77;21084;-45
2022/10/24 03:32:27;;;;;;;31.65;19.40;;;;;;;11.28;100.00;98883.88;1825219;77;21606;-45
2022/10/24 03:34:54;;;;;;;32.70;19.92;;;;;;;11.30;100.00;98879.36;1826997;77;20998;-46
2022/10/24 03:37:21;;;;;;;31.52;19.45;;;;;;;11.29;100.00;98864.49;1812458;77;21001;-44
2022/10/24 03:39:48;;;;;;;33.13;18.90;;;;;;;11.30;100.00;98858.30;1827649;77;20985;-45
2022/10/24 03:42:15;;;;;;;30.92;18.80;;;;;;;11.30;100.00;98855.19;1829577;77;21014;-47
2022/10/24 03:44:41;;;;;;;37.42;18.95;;;;;;;11.34;100.00;98847.93;1824348;77;21002;-47
2022/10/24 03:47:08;;;;;;;35.13;20.00;;;;;;;11.37;100.00;98848.19;1823732;77;20959;-44
2022/10/24 03:49:35;;;;;;;29.77;18.87;;;;;;;11.38;100.00;98826.20;1826161;77;21466;-44
2022/10/24 03:52:02;;;;;;;32.67;19.60;;;;;;;11.37;99.80;98815.28;1827255;77;21003;-47
2022/10/24 03:54:29;;;;;;;28.77;18.70;;;;;;;11.37;99.80;98815.28;1820430;77;21710;-47
2022/10/24 03:56:55;;;;;;;24.77;16.60;;;;;;;11.36;100.00;98809.18;1828001;77;21597;-48
2022/10/24 03:59:22;;;;;;;28.73;18.20;;;;;;;11.33;100.00;98811.55;1824734;77;21009;-47
2022/10/24 04:01:49;;;;;;;31.77;19.67;;;;;;;11.31;100.00;98826.61;1823140;76;21625;-47
2022/10/24 04:04:15;;;;;;;32.53;18.50;;;;;;;11.30;100.00;98826.71;1824327;77;20986;-44
2022/10/24 04:06:42;;;;;;;31.20;18.83;;;;;;;11.33;100.00;98834.38;1821297;77;21461;-47
2022/10/24 04:09:09;;;;;;;25.37;18.33;;;;;;;11.30;100.00;98851.72;1824502;77;21036;-43
2022/10/24 04:11:36;;;;;;;28.73;19.42;;;;;;;11.33;100.00;98855.44;1822602;78;21498;-44
2022/10/24 04:14:03;;;;;;;28.27;18.23;;;;;;;11.31;100.00;98853.39;1827258;77;21014;-44
2022/10/24 04:16:32;;;;;;;;;;;;;;;11.31;100.00;98851.63;1830296;77;21029;-45
2022/10/24 04:18:59;;;;;;;28.25;18.17;;;;;;;11.26;100.00;98851.52;1831776;77;20105;-44
2022/10/24 04:21:26;;;;;;;28.30;19.10;;;;;;;11.29;100.00;98842.12;1820172;77;20967;-46
2022/10/24 04:23:52;;;;;;;30.15;18.10;;;;;;;11.28;100.00;98844.39;1831180;77;21026;-46
2022/10/24 04:26:19;;;;;;;33.38;19.48;;;;;;;11.31;100.00;98837.14;1826241;77;22463;-48
2022/10/24 04:28:46;;;;;;;25.03;18.13;;;;;;;11.34;100.00;98830.82;1838483;77;21001;-44
2022/10/24 04:31:14;;;;;;;28.90;17.82;;;;;;;11.38;100.00;98852.52;1823440;77;20981;-45
2022/10/24 04:33:41;;;;;;;30.15;17.32;;;;;;;11.37;100.00;98850.37;1829054;77;21051;-43
2022/10/24 04:36:08;;;;;;;29.55;17.90;;;;;;;11.36;100.00;98860.52;1820492;77;20994;-44
2022/10/24 04:38:34;;;;;;;31.95;18.07;;;;;;;11.40;100.00;98873.84;1819307;77;21038;-44
2022/10/24 04:41:01;;;;;;;36.17;17.27;;;;;;;11.41;100.00;98870.28;1825744;77;20990;-45
2022/10/24 04:43:28;;;;;;;29.13;18.00;;;;;;;11.40;100.00;98871.21;1828376;77;22148;-45
2022/10/24 04:45:55;;;;;;;31.75;17.45;;;;;;;11.40;100.00;98871.21;1798442;78;21030;-44
2022/10/24 04:48:22;;;;;;;27.90;17.53;;;;;;;11.40;100.00;98869.89;1824500;77;20954;-43
2022/10/24 04:50:49;;;;;;;28.15;17.27;;;;;;;11.42;100.00;98870.63;1823038;77;21077;-47
2022/10/24 04:53:15;;;;;;;26.47;16.63;;;;;;;11.43;100.00;98871.02;1825016;77;20987;-46
2022/10/24 04:55:43;;;;;;;31.17;17.23;;;;;;;11.43;100.00;98865.75;1824659;77;22186;-45
2022/10/24 04:58:10;;;;;;;30.88;17.30;;;;;;;11.45;100.00;98872.23;1828324;77;20985;-47
2022/10/24 05:00:37;;;;;;;26.57;16.52;;;;;;;11.44;100.00;98850.34;1831074;77;21625;-46
2022/10/24 05:03:04;;;;;;;28.47;17.05;;;;;;;11.45;100.00;98855.96;1828353;77;21065;-47
2022/10/24 05:05:30;;;;;;;27.27;16.12;;;;;;;11.44;100.00;98867.45;1829706;77;20989;-45
2022/10/24 05:07:57;;;;;;;28.32;16.93;;;;;;;11.47;100.00;98859.33;1831787;77;21499;-46
2022/10/24 05:10:24;;;;;;;31.13;17.80;;;;;;;11.47;100.00;98861.97;1828343;77;20993;-47
2022/10/24 05:12:51;;;;;;;33.17;16.90;;;;;;;11.47;100.00;98850.12;1823682;77;21033;-46
2022/10/24 05:15:18;;;;;;;29.52;16.52;;;;;;;11.47;100.00;98847.97;1829475;77;21225;-44
2022/10/24 05:17:44;;;;;;;26.90;16.57;;;;;;;11.48;100.00;98849.19;1822100;77;20989;-45
2022/10/24 05:20:11;;;;;;;25.40;15.77;;;;;;;11.49;100.00;98845.59;1826624;77;21068;-45
2022/10/24 05:22:38;;;;;;;28.90;16.30;;;;;;;11.49;100.00;98839.01;1827132;76;21002;-46
2022/10/24 05:25:06;;;;;;;25.65;16.37;;;;;;;11.52;100.00;98848.52;1822380;77;21178;-44
2022/10/24 05:27:33;;;;;;;28.75;16.30;;;;;;;11.56;100.00;98853.10;1824443;77;21002;-45
2022/10/24 05:30:00;;;;;;;24.72;16.42;;;;;;;11.58;100.00;98840.67;1832945;78;20994;-45
2022/10/24 05:32:27;;;;;;;28.70;15.50;;;;;;;11.60;100.00;98842.73;1826356;77;20996;-44
2022/10/24 05:34:53;;;;;;;28.10;17.17;;;;;;;11.61;100.00;98846.58;1835403;77;21890;-44
2022/10/24 05:37:21;;;;;;;24.10;16.00;;;;;;;11.64;100.00;98842.44;1826709;77;20982;-44
2022/10/24 05:39:47;;;;;;;27.50;16.87;;;;;;;11.66;100.00;98840.98;1816777;77;20989;-45
2022/10/24 05:42:14;;;;;;;25.73;15.00;;;;;;;11.66;100.00;98849.75;1821843;77;20994;-45
2022/10/24 05:44:41;;;;;;;25.97;15.53;;;;;;;11.68;100.00;98853.13;1823707;78;20972;-45
2022/10/24 05:47:08;;;;;;;20.35;15.00;;;;;;;11.69;100.00;98857.44;1828323;77;21594;-44
2022/10/24 05:49:35;;;;;;;24.92;14.95;;;;;;;11.69;100.00;98857.91;1826889;77;20994;-45
2022/10/24 05:52:03;;;;;;;23.25;14.58;;;;;;;11.70;100.00;98861.77;1825661;77;21592;-45
2022/10/24 05:54:29;;;;;;;26.12;14.47;;;;;;;11.72;100.00;98861.67;1828270;77;21073;-44
2022/10/24 05:56:56;;;;;;;22.95;15.10;;;;;;;11.75;100.00;98864.56;1822588;77;20998;-45
2022/10/24 05:59:23;;;;;;;26.10;15.40;;;;;;;11.78;100.00;98869.63;1824220;77;21471;-46
2022/10/24 06:01:50;;;;;;;28.32;15.88;;;;;;;11.79;100.00;98862.95;1827490;77;21150;-46
2022/10/24 06:04:17;;;;;;;26.70;14.07;;;;;;;11.81;100.00;98875.54;1826375;77;21029;-43
2022/10/24 06:06:44;;;;;;;23.60;15.43;;;;;;;11.81;100.00;98866.80;1828032;77;21352;-45
2022/10/24 06:09:12;;;;;;;22.37;14.43;;;;;;;11.83;100.00;98867.54;1831785;77;21859;-46
2022/10/24 06:11:39;;;;;;;25.90;15.18;;;;;;;11.84;100.00;98870.52;1826514;77;20978;-46
2022/10/24 06:14:05;;;;;;;25.77;14.43;;;;;;;11.88;100.00;98875.50;1828913;77;20974;-45
2022/10/24 06:16:33;;;;;;;31.17;14.43;;;;;;;11.92;100.00;98879.28;1828523;77;21009;-44
2022/10/24 06:19:00;;;;;;;23.10;14.40;;;;;;;11.92;100.00;98874.85;1825308;77;21328;-46
2022/10/24 06:21:26;;;;;;;23.77;14.07;;;;;;;11.97;100.00;98875.84;1820790;77;21598;-45
2022/10/24 06:23:53;;;;;;;19.30;13.80;;;;;;;11.97;100.00;98885.06;1826004;77;20998;-43
2022/10/24 06:26:20;;;;;;;23.77;14.83;;;;;;;11.97;100.00;98885.06;1823179;77;21436;-44
2022/10/24 06:28:47;;;;;;;21.35;13.25;;;;;;;12.03;100.00;98882.03;1826575;77;20990;-44
2022/10/24 06:31:13;;;;;;;21.83;13.57;;;;;;;12.08;100.00;98877.30;1824899;77;21026;-45
2022/10/24 06:33:40;;;;;;;29.30;13.98;;;;;;;12.08;100.00;98877.30;1830857;77;20993;-46
2022/10/24 06:36:08;;;;;;;23.23;13.83;;;;;;;12.06;100.00;98877.40;1827314;77;20989;-44
2022/10/24 06:38:36;;;;;;;21.62;14.28;;;;;;;12.10;100.00;98885.94;1822673;77;20998;-48
2022/10/24 06:41:09;;;;;;;24.02;13.68;;;;;;;12.14;100.00;98888.73;1825424;77;21482;-47
2022/10/24 06:43:37;;;;;;;21.15;13.53;;;;;;;12.19;100.00;98885.80;1828485;77;20970;-46
2022/10/24 06:46:11;;;;;;;26.12;14.47;;;;;;;12.20;100.00;98889.62;1827980;77;21073;-44
2022/10/24 06:48:37;;;;;;;22.42;13.75;;;;;;;12.22;100.00;98881.13;1825190;77;21477;-46
2022/10/24 06:51:05;;;;;;;25.47;13.50;;;;;;;12.25;100.00;98878.77;1829203;77;21452;-45
2022/10/24 06:53:33;;;;;;;20.40;13.28;;;;;;;12.29;100.00;98886.34;1833795;77;21102;-47
2022/10/24 06:56:02;;;;;;;23.18;13.48;;;;;;;12.32;100.00;98881.84;1830168;77;21003;-47
2022/10/24 06:58:34;;;;;;;26.40;14.75;;;;;;;12.35;100.00;98878.52;1824389;77;21048;-45
2022/10/24 07:01:08;;;;;;;23.40;12.58;;;;;;;12.39;100.00;98875.19;1823875;77;20987;-46
2022/10/24 07:03:35;;;;;;;24.02;12.90;;;;;;;12.43;100.00;98889.84;1822214;77;22572;-45
2022/10/24 07:06:12;;;;;;;21.65;13.15;;;;;;;12.46;100.00;98885.66;1825320;77;20994;-44
2022/10/24 07:08:39;;;;;;;23.80;12.80;;;;;;;12.49;100.00;98888.09;1805916;77;21490;-45
2022/10/24 07:11:05;;;;;;;22.07;13.33;;;;;;;12.55;100.00;98890.31;1823853;77;21005;-47
2022/10/24 07:13:32;;;;;;;21.02;12.70;;;;;;;12.61;100.00;98891.67;1824936;77;21510;-45
2022/10/24 07:15:59;;;;;;;21.23;13.25;;;;;;;12.67;100.00;98896.52;1823501;77;20992;-44
2022/10/24 07:18:26;;;;;;;21.80;13.10;;;;;;;12.73;100.00;98895.23;1836490;77;21037;-46
2022/10/24 07:20:53;;;;;;;19.75;12.65;;;;;;;12.77;100.00;98896.24;1829430;77;21480;-45
2022/10/24 07:23:19;;;;;;;19.77;12.23;;;;;;;12.82;100.00;98901.17;1818867;78;21003;-46
2022/10/24 07:25:46;;;;;;;21.93;11.67;;;;;;;12.83;100.00;98905.03;1829207;77;20975;-44
2022/10/24 07:28:13;;;;;;;17.17;12.23;;;;;;;12.84;100.00;98918.61;1814795;77;21495;-45
2022/10/24 07:30:43;;;;;;;18.55;11.90;;;;;;;12.88;100.00;98913.95;1827891;77;20999;-45
2022/10/24 07:33:10;;;;;;;18.45;12.18;;;;;;;12.92;100.00;98911.45;1821746;77;21071;-44
2022/10/24 07:35:42;;;;;;;18.17;12.05;;;;;;;12.96;100.00;98907.64;1829220;77;21027;-44
2022/10/24 07:38:08;;;;;;;19.48;12.73;;;;;;;12.99;100.00;98911.87;1827358;77;21001;-45
2022/10/24 07:40:35;;;;;;;20.77;12.57;;;;;;;13.04;100.00;98915.88;1821436;77;21123;-44
2022/10/24 07:43:02;;;;;;;17.47;11.47;;;;;;;13.09;100.00;98919.97;1830017;77;21176;-46
2022/10/24 07:45:31;;;;;;;22.73;11.70;;;;;;;13.13;100.00;98914.83;1835089;77;20966;-46
2022/10/24 07:47:58;;;;;;;19.62;11.93;;;;;;;13.18;100.00;98906.94;1829582;77;20983;-45
2022/10/24 07:50:26;;;;;;;21.73;12.88;;;;;;;13.18;100.00;98904.78;1825565;77;21002;-45
2022/10/24 07:52:52;;;;;;;;;;;;;;;13.22;100.00;98904.47;1817484;77;21078;-45
2022/10/24 07:55:19;;;;;;;19.92;12.37;;;;;;;13.23;99.75;98897.38;1822718;77;20102;-44
2022/10/24 07:57:46;;;;;;;26.73;13.17;;;;;;;13.28;99.88;98908.45;1828699;77;21010;-46
2022/10/24 08:00:14;;;;;;;22.17;13.62;;;;;;;13.36;99.98;98914.04;1820011;77;20998;-48
2022/10/24 08:02:41;;;;;;;27.45;12.30;;;;;;;13.40;99.72;98902.29;1823608;77;21031;-44
2022/10/24 08:05:10;;;;;;;17.27;12.18;;;;;;;13.43;99.67;98903.87;1822253;77;21511;-42
2022/10/24 08:07:37;;;;;;;17.82;11.45;;;;;;;13.52;99.62;98910.30;1826605;77;20982;-43
2022/10/24 08:10:08;;;;;;;21.80;11.45;;;;;;;13.58;99.63;98905.87;1772541;80;21062;-43
2022/10/24 08:12:34;;;;;;;22.67;10.68;;;;;;;13.63;99.38;98901.92;1789586;79;21034;-43
2022/10/24 08:15:01;;;;;;;19.03;11.20;;;;;;;13.61;98.49;98893.77;1786960;78;21041;-43
2022/10/24 08:17:28;;;;;;;24.98;12.20;;;;;;;13.68;98.57;98897.63;1817087;77;21218;-43
2022/10/24 08:19:55;;;;;;;17.73;11.48;;;;;;;13.74;98.55;98897.16;1792923;78;20990;-42
2022/10/24 08:22:22;;;;;;;26.60;12.28;;;;;;;13.78;98.39;98890.69;1781283;79;21546;-46
2022/10/24 08:24:49;;;;;;;20.68;11.18;;;;;;;13.83;98.37;98883.26;1793503;78;21001;-46
2022/10/24 08:27:15;;;;;;;22.17;11.43;;;;;;;13.87;98.02;98876.43;1786048;79;20999;-47
2022/10/24 08:29:42;;;;;;;18.70;10.90;;;;;;;13.93;97.75;98878.59;1773768;79;21005;-45
2022/10/24 08:32:09;;;;;;;16.15;10.72;;;;;;;13.95;97.08;98873.58;1787220;78;21445;-47
2022/10/24 08:34:37;;;;;;;18.65;10.18;;;;;;;14.04;97.11;98879.11;1804204;78;21147;-46
2022/10/24 08:37:03;;;;;;;16.00;9.40;;;;;;;14.11;97.24;98879.00;1809325;78;20991;-44
2022/10/24 08:39:30;;;;;;;13.88;9.18;;;;;;;14.12;96.17;98888.63;1792654;78;21007;-45
2022/10/24 08:42:04;;;;;;;14.80;9.28;;;;;;;14.19;96.32;98882.75;1789766;78;21496;-47
2022/10/24 08:44:36;;;;;;;11.35;8.40;;;;;;;14.28;96.40;98873.73;1787801;78;21004;-48
2022/10/24 08:47:23;;;;;;;13.83;8.60;;;;;;;14.33;96.00;98873.73;1763183;79;20992;-45
2022/10/24 08:50:30;;;;;;;12.47;7.85;;;;;;;14.33;95.15;98864.96;1736484;81;21563;-45
2022/10/24 08:53:05;;;;;;;22.15;8.65;;;;;;;14.34;94.31;98866.66;1767581;80;20994;-43
2022/10/24 08:55:54;;;;;;;13.60;8.18;;;;;;;14.33;94.13;98871.58;1782310;79;21028;-48
2022/10/24 08:58:33;;;;;;;11.20;8.25;;;;;;;14.32;94.54;98868.59;1773991;80;21014;-46
2022/10/24 09:01:05;;;;;;;14.33;8.30;;;;;;;14.36;94.51;98874.83;1780812;79;21059;-47
2022/10/24 09:03:42;;;;;;;12.45;8.48;;;;;;;14.43;94.67;98875.20;1735027;81;21067;-49
2022/10/24 09:06:19;;;;;;;15.38;8.05;;;;;;;14.42;93.62;98888.05;1747064;79;20994;-46
2022/10/24 09:09:02;;;;;;;15.65;7.80;;;;;;;14.50;94.40;98893.60;1726046;80;21030;-47
2022/10/24 09:11:52;;;;;;;12.28;7.62;;;;;;;14.53;94.27;98890.70;1751408;79;21188;-44
2022/10/24 09:14:24;;;;;;;11.43;7.40;;;;;;;14.53;93.16;98894.67;1771103;78;20998;-45
2022/10/24 09:16:59;;;;;;;10.00;7.37;;;;;;;14.60;93.55;98899.05;1767472;79;20987;-44
2022/10/24 09:19:29;;;;;;;9.85;7.35;;;;;;;14.63;93.48;98905.91;1797721;78;20995;-45
2022/10/24 09:21:59;;;;;;;11.83;7.58;;;;;;;14.64;93.26;98908.91;1777096;80;21019;-46
2022/10/24 09:24:42;;;;;;;9.03;7.28;;;;;;;14.67;92.81;98905.54;1783856;79;21018;-49
2022/10/24 09:27:29;;;;;;;13.85;7.28;;;;;;;14.72;93.33;98900.73;1783745;79;20978;-48
2022/10/24 09:29:58;;;;;;;10.90;7.08;;;;;;;14.76;92.65;98897.36;1798517;78;21448;-46
2022/10/24 09:32:31;;;;;;;13.32;7.72;;;;;;;14.80;92.17;98898.80;1793932;78;21017;-46
2022/10/24 09:35:12;;;;;;;18.50;6.33;;;;;;;14.86;92.39;98888.20;1761125;79;21507;-47
2022/10/24 09:37:54;;;;;;;10.08;7.00;;;;;;;14.92;91.69;98895.67;1791232;79;21466;-45
2022/10/24 09:40:31;;;;;;;15.40;7.03;;;;;;;14.94;91.49;98884.48;1746721;80;21042;-45
2022/10/24 09:43:20;;;;;;;13.65;7.58;;;;;;;14.98;91.41;98881.45;1791095;78;21014;-45
2022/10/24 09:46:22;;;;;;;10.60;6.85;;;;;;;15.10;92.00;98889.39;1800018;78;21003;-44
2022/10/24 09:48:57;;;;;;;8.33;6.60;;;;;;;15.16;91.28;98880.45;1774198;79;21011;-45
2022/10/24 09:51:39;;;;;;;12.15;6.30;;;;;;;15.18;89.97;98891.41;1760969;80;21606;-45
2022/10/24 09:54:22;;;;;;;13.22;6.42;;;;;;;15.23;90.08;98888.75;1769797;78;21022;-44
2022/10/24 09:56:58;;;;;;;10.45;6.47;;;;;;;15.27;90.58;98884.05;1821154;77;20994;-46
2022/10/24 09:59:51;;;;;;;9.80;5.65;;;;;;;15.30;90.15;98880.66;1811147;78;20972;-44
2022/10/24 10:02:25;;;;;;;13.80;6.33;;;;;;;15.36;89.29;98883.30;1769364;79;20975;-45
2022/10/24 10:05:06;;;;;;;12.55;6.20;;;;;;;15.45;89.76;98886.52;1754053;80;21114;-44
2022/10/24 10:07:38;;;;;;;10.95;5.90;;;;;;;15.51;89.38;98882.52;1776273;79;21012;-45
2022/10/24 10:10:33;;;;;;;13.68;5.65;;;;;;;15.61;89.50;98887.42;1768304;79;21076;-44
2022/10/24 10:13:18;;;;;;;8.03;5.33;;;;;;;15.69;88.46;98888.11;1762218;79;21003;-44
2022/10/24 10:15:55;;;;;;;8.35;4.97;;;;;;;15.63;87.30;98892.11;1780409;79;21043;-47
2022/10/24 10:18:28;;;;;;;9.40;5.30;;;;;;;15.78;87.94;98887.87;1753413;80;21004;-44
2022/10/24 10:21:08;;;;;;;13.40;5.60;;;;;;;15.80;87.11;98892.55;1754422;80;21041;-44
2022/10/24 10:23:48;;;;;;;9.98;5.12;;;;;;;15.90;88.23;98908.06;1742800;80;21003;-44
2022/10/24 10:26:26;;;;;;;7.30;4.47;;;;;;;15.90;86.74;98908.06;1743692;80;21205;-46
2022/10/24 10:29:19;;;;;;;9.60;4.70;;;;;;;15.91;86.16;98907.91;1787411;79;20991;-46
2022/10/24 10:32:10;;;;;;;8.53;5.10;;;;;;;15.93;86.13;98909.11;1667839;84;21038;-46
2022/10/24 10:34:54;;;;;;;21.30;6.05;;;;;;;16.00;86.68;98914.26;1658796;84;21158;-45
2022/10/24 10:37:28;;;;;;;10.20;4.42;;;;;;;16.03;85.88;98898.59;1678016;84;21125;-44
2022/10/24 10:40:31;;;;;;;8.33;4.37;;;;;;;16.09;85.67;98902.87;1698838;83;21039;-47
2022/10/24 10:43:32;;;;;;;6.47;4.65;;;;;;;16.18;86.04;98901.75;1693788;83;21218;-46
2022/10/24 10:46:26;;;;;;;6.70;4.28;;;;;;;16.26;85.87;98901.93;1675385;83;21539;-47
2022/10/24 10:49:20;;;;;;;7.72;4.60;;;;;;;16.29;85.14;98893.22;1705622;82;21050;-45
2022/10/24 10:51:55;;;;;;;7.42;4.45;;;;;;;16.35;85.50;98901.14;1676090;83;21508;-46
2022/10/24 10:54:49;;;;;;;6.42;4.22;;;;;;;16.42;85.24;98894.83;1718720;83;21460;-47
2022/10/24 10:57:21;;;;;;;8.35;4.35;;;;;;;16.44;84.01;98891.06;1660149;83;21015;-47
2022/10/24 10:59:59;;;;;;;5.28;3.87;;;;;;;16.31;82.41;98894.42;1688916;84;21009;-46
2022/10/24 11:02:49;;;;;;;8.48;4.75;;;;;;;16.48;83.67;98897.81;1672645;83;21011;-46
2022/10/24 11:05:47;;;;;;;7.65;3.98;;;;;;;16.58;84.16;98897.02;1726498;77;20997;-46
2022/10/24 11:08:52;;;;;;;11.43;4.20;;;;;;;16.60;83.06;98891.91;1830106;77;20990;-47
2022/10/24 11:11:38;;;;;;;7.80;4.17;;;;;;;16.63;82.23;98895.64;1808187;78;21033;-46
2022/10/24 11:14:33;;;;;;;8.08;4.25;;;;;;;16.72;82.80;98894.00;1822518;77;21121;-47
2022/10/24 11:17:22;;;;;;;7.95;4.05;;;;;;;16.80;83.65;98888.84;1794459;78;21152;-46
2022/10/24 11:20:18;;;;;;;9.35;4.17;;;;;;;16.85;82.89;98886.66;1789480;79;20980;-49
2022/10/24 11:23:30;;;;;;;8.63;4.15;;;;;;;16.89;82.52;98882.76;1799402;78;21070;-47
2022/10/24 11:26:14;;;;;;;9.80;4.28;;;;;;;16.98;82.67;98891.73;1802761;78;21053;-47
2022/10/24 11:29:06;;;;;;;13.43;4.72;;;;;;;17.02;81.59;98879.02;1804352;79;21496;-46
2022/10/24 11:31:41;;;;;;;10.10;4.05;;;;;;;17.08;82.64;98874.48;1766022;79;21479;-46
2022/10/24 11:34:24;;;;;;;6.95;3.42;;;;;;;17.15;82.73;98873.45;1769816;80;20992;-46
2022/10/24 11:37:08;;;;;;;9.30;3.50;;;;;;;17.17;81.71;98866.19;1760837;80;21516;-46
2022/10/24 11:39:43;;;;;;;11.18;3.50;;;;;;;17.20;81.02;98873.40;1774757;80;21007;-46
2022/10/24 11:42:30;;;;;;;7.65;3.37;;;;;;;17.25;81.41;98867.19;1766615;80;21703;-47
2022/10/24 11:45:16;;;;;;;10.25;3.20;;;;;;;17.26;80.10;98863.56;1762435;79;21108;-47